createdAt,value
2023-05-10T00:02:21.509Z,89.12
2023-05-10T00:05:08.379Z,88.75
2023-05-10T00:07:54.582Z,90.14
2023-05-10T00:10:41.827Z,90.96
2023-05-10T00:13:27.725Z,90.83
2023-05-10T00:16:14.051Z,91.04
2023-05-10T00:19:01.840Z,90.27
2023-05-10T00:21:48.119Z,90.85
2023-05-10T00:24:34.225Z,91.47
2023-05-10T00:27:26.824Z,90.60
2023-05-10T00:30:20.448Z,90.20
2023-05-10T00:33:13.393Z,90.30
2023-05-10T00:36:08.343Z,90.52
2023-05-10T00:39:01.362Z,90.33
2023-05-10T00:41:53.764Z,90.49
2023-05-10T00:44:47.523Z,89.91
2023-05-10T00:47:40.383Z,90.62
2023-05-10T00:50:33.096Z,90.50
2023-05-10T00:53:27.343Z,90.45
2023-05-10T00:56:21.380Z,90.24
2023-05-10T00:59:13.814Z,90.54
2023-05-10T01:02:07.247Z,90.86
2023-05-10T01:04:59.702Z,90.56
2023-05-10T01:07:53.026Z,91.00
2023-05-10T01:10:47.302Z,91.16
2023-05-10T01:13:41.191Z,90.92
2023-05-10T01:19:54.774Z,90.72
2023-05-10T01:26:14.245Z,91.33
2023-05-10T01:29:21.342Z,91.13
2023-05-10T01:35:34.399Z,91.39
2023-05-10T01:41:45.144Z,91.38
2023-05-10T01:44:39.921Z,91.27
2023-05-10T01:47:35.699Z,91.47
2023-05-10T01:50:32.297Z,91.01
2023-05-10T01:53:25.612Z,90.65
2023-05-10T01:56:18.902Z,91.30
2023-05-10T01:59:15.061Z,91.35
2023-05-10T02:05:20.895Z,91.03
2023-05-10T02:08:15.719Z,92.16
2023-05-10T02:14:20.844Z,92.64
2023-05-10T02:17:14.586Z,92.30
2023-05-10T02:20:10.169Z,93.16
2023-05-10T02:26:07.675Z,93.58
2023-05-10T02:29:00.482Z,93.68
2023-05-10T02:31:55.090Z,93.28
2023-05-10T02:38:35.185Z,93.13
2023-05-10T02:44:43.077Z,92.98
2023-05-10T02:47:36.123Z,93.04
2023-05-10T02:50:30.131Z,92.43
2023-05-10T02:53:24.671Z,93.54
2023-05-10T02:56:22.565Z,93.24
2023-05-10T02:59:15.036Z,93.29
2023-05-10T03:02:09.210Z,94.23
2023-05-10T03:05:01.956Z,94.21
2023-05-10T03:07:53.481Z,95.95
2023-05-10T03:10:56.542Z,95.93
2023-05-10T03:14:18.015Z,96.22
2023-05-10T03:17:17.440Z,95.94
2023-05-10T03:20:13.087Z,95.55
2023-05-10T03:26:22.639Z,96.06
2023-05-10T03:29:16.496Z,95.79
2023-05-10T03:32:09.108Z,96.20
2023-05-10T03:35:03.332Z,95.68
2023-05-10T03:37:55.746Z,95.59
2023-05-10T03:40:47.638Z,95.71
2023-05-10T03:43:40.682Z,96.21
2023-05-10T03:46:32.989Z,97.49
2023-05-10T03:49:26.181Z,97.48
2023-05-10T03:55:35.417Z,97.19
2023-05-10T04:01:44.259Z,97.01
2023-05-10T04:07:50.223Z,95.78
2023-05-10T04:10:44.322Z,95.90
2023-05-10T04:13:37.366Z,96.50
2023-05-10T04:16:30.143Z,96.66
2023-05-10T04:19:22.883Z,96.89
2023-05-10T04:22:15.885Z,98.04
2023-05-10T04:25:10.104Z,97.45
2023-05-10T04:28:04.223Z,97.48
2023-05-10T04:31:03.188Z,98.79
2023-05-10T04:37:31.848Z,97.63
2023-05-10T04:41:02.168Z,98.30
2023-05-10T04:43:56.422Z,97.72
2023-05-10T04:47:06.221Z,97.70
2023-05-10T04:49:55.789Z,97.22
2023-05-10T04:52:49.100Z,97.33
2023-05-10T04:55:41.977Z,96.62
2023-05-10T04:58:34.752Z,96.67
2023-05-10T05:01:28.014Z,96.64
2023-05-10T05:04:20.864Z,96.95
2023-05-10T05:07:13.679Z,96.97
2023-05-10T05:10:06.835Z,96.34
2023-05-10T05:13:31.834Z,95.69
2023-05-10T05:16:24.804Z,96.14
2023-05-10T05:19:34.099Z,95.87
2023-05-10T05:22:28.651Z,95.76
2023-05-10T05:28:42.794Z,95.16
2023-05-10T05:31:35.943Z,95.57
2023-05-10T05:34:28.649Z,94.26
2023-05-10T05:37:23.367Z,95.26
2023-05-10T05:40:17.249Z,95.25
2023-05-10T05:43:09.992Z,95.44
2023-05-10T05:46:02.929Z,95.58
2023-05-10T05:48:55.700Z,95.03
2023-05-10T05:51:48.380Z,95.06
2023-05-10T05:54:41.349Z,95.19
2023-05-10T06:00:52.754Z,94.83
2023-05-10T06:03:46.088Z,95.60
2023-05-10T06:06:39.162Z,94.77
2023-05-10T06:09:32.066Z,94.04
2023-05-10T06:15:35.749Z,93.09
2023-05-10T06:18:29.354Z,94.09
2023-05-10T06:21:22.074Z,94.41
2023-05-10T06:24:15.063Z,94.17
2023-05-10T06:27:08.315Z,93.48
2023-05-10T06:33:13.331Z,93.45
2023-05-10T06:36:07.539Z,92.87
2023-05-10T06:38:59.848Z,93.16
2023-05-10T06:41:53.088Z,92.96
2023-05-10T06:44:45.910Z,93.06
2023-05-10T06:47:39.524Z,92.58
2023-05-10T06:50:32.519Z,92.40
2023-05-10T06:53:26.224Z,92.02
2023-05-10T06:59:17.329Z,91.99
2023-05-10T07:02:10.266Z,91.52
2023-05-10T07:05:15.133Z,90.56
2023-05-10T07:08:08.368Z,89.95
2023-05-10T07:11:07.975Z,89.80
2023-05-10T07:14:00.651Z,90.19
2023-05-10T07:20:14.562Z,90.10
2023-05-10T07:26:33.378Z,89.88
2023-05-10T07:32:51.152Z,89.30
2023-05-10T07:38:52.770Z,87.23
2023-05-10T07:44:58.645Z,86.97
2023-05-10T07:51:03.323Z,88.03
2023-05-10T07:53:55.845Z,88.10
2023-05-10T07:56:49.126Z,86.63
2023-05-10T07:59:42.141Z,84.47
2023-05-10T08:02:36.884Z,83.13
2023-05-10T08:05:55.572Z,80.55
2023-05-10T08:08:50.355Z,81.17
2023-05-10T08:11:42.919Z,80.18
2023-05-10T08:14:37.569Z,80.04
2023-05-10T08:17:30.056Z,79.92
2023-05-10T08:23:33.089Z,79.73
2023-05-10T08:26:25.972Z,77.33
2023-05-10T08:29:18.743Z,75.84
2023-05-10T08:32:10.796Z,75.60
2023-05-10T08:35:03.724Z,75.13
2023-05-10T08:37:54.035Z,72.96
2023-05-10T08:40:48.628Z,72.84
2023-05-10T08:43:42.452Z,68.59
2023-05-10T08:46:37.538Z,69.32
2023-05-10T08:49:33.387Z,66.91
2023-05-10T08:52:27.783Z,65.50
2023-05-10T08:55:39.447Z,66.58
2023-05-10T08:58:28.503Z,65.26
2023-05-10T09:01:21.807Z,67.81
2023-05-10T09:04:15.069Z,65.65
2023-05-10T09:07:08.251Z,64.53
2023-05-10T09:10:01.337Z,66.57
2023-05-10T09:12:54.995Z,72.68
2023-05-10T09:15:49.972Z,75.92
2023-05-10T09:18:42.618Z,79.27
2023-05-10T09:21:36.385Z,81.68
2023-05-10T09:27:41.827Z,85.11
2023-05-10T09:30:35.323Z,85.09
2023-05-10T09:33:29.042Z,83.51
2023-05-10T09:36:21.828Z,81.27
2023-05-10T09:39:15.226Z,82.85
2023-05-10T09:42:10.869Z,83.52
2023-05-10T09:45:05.506Z,81.35
2023-05-10T09:47:58.563Z,82.27
2023-05-10T09:54:21.932Z,67.85
2023-05-10T09:57:20.966Z,71.35
2023-05-10T10:00:20.906Z,66.45
2023-05-10T10:06:38.426Z,56.67
2023-05-10T10:12:51.546Z,55.81
2023-05-10T10:15:44.385Z,56.29
2023-05-10T10:18:39.596Z,53.24
2023-05-10T10:21:31.948Z,51.82
2023-05-10T10:27:45.293Z,50.93
2023-05-10T10:30:43.158Z,49.33
2023-05-10T10:33:53.685Z,49.37
2023-05-10T10:36:43.578Z,49.23
2023-05-10T10:39:30.227Z,47.77
2023-05-10T10:42:16.416Z,50.95
2023-05-10T10:45:14.235Z,46.87
2023-05-10T10:48:28.730Z,47.16
2023-05-10T10:51:15.172Z,47.29
2023-05-10T10:54:11.072Z,45.63
2023-05-10T10:57:12.557Z,45.22
2023-05-10T11:03:29.863Z,44.10
2023-05-10T11:06:30.784Z,45.88
2023-05-10T11:09:26.499Z,49.18
2023-05-10T11:12:18.729Z,49.24
2023-05-10T11:15:11.366Z,49.01
2023-05-10T11:18:19.161Z,50.44
2023-05-10T11:21:14.185Z,54.70
2023-05-10T11:24:14.982Z,55.68
2023-05-10T11:27:10.232Z,52.59
2023-05-10T11:30:04.955Z,50.00
2023-05-10T11:36:21.194Z,44.96
2023-05-10T11:39:14.036Z,43.07
2023-05-10T11:42:10.036Z,44.78
2023-05-10T11:45:11.030Z,46.68
2023-05-10T11:48:04.761Z,45.77
2023-05-10T11:50:58.064Z,43.24
2023-05-10T11:53:54.415Z,43.60
2023-05-10T11:56:46.881Z,43.88
2023-05-10T11:59:41.736Z,44.92
2023-05-10T12:02:36.498Z,45.55
2023-05-10T12:05:29.252Z,48.21
2023-05-10T12:08:24.744Z,48.32
2023-05-10T12:14:39.550Z,53.08
2023-05-10T12:17:32.030Z,52.75
2023-05-10T12:20:26.250Z,56.34
2023-05-10T12:23:19.295Z,61.59
2023-05-10T12:26:50.269Z,70.09
2023-05-10T12:29:45.767Z,76.08
2023-05-10T12:32:53.498Z,78.63
2023-05-10T12:35:47.468Z,81.54
2023-05-10T12:38:43.810Z,82.52
2023-05-10T12:41:30.668Z,82.92
2023-05-10T12:44:23.254Z,82.93
2023-05-10T12:47:17.335Z,83.07
2023-05-10T12:50:10.749Z,81.85
2023-05-10T12:53:02.916Z,78.83
2023-05-10T12:55:55.916Z,82.15
2023-05-10T12:58:49.294Z,79.33
2023-05-10T13:01:42.429Z,81.76
2023-05-10T13:04:38.501Z,80.50
2023-05-10T13:07:30.906Z,76.58
2023-05-10T13:10:24.782Z,79.12
2023-05-10T13:13:19.109Z,75.37
2023-05-10T13:16:12.156Z,74.08
2023-05-10T13:19:05.274Z,73.08
2023-05-10T13:25:06.949Z,67.37
2023-05-10T13:28:00.200Z,70.65
2023-05-10T13:30:53.213Z,61.45
2023-05-10T13:33:46.154Z,62.22
2023-05-10T13:36:39.760Z,60.76
2023-05-10T13:39:35.266Z,63.01
2023-05-10T13:42:29.442Z,59.96
2023-05-10T13:45:22.364Z,61.10
2023-05-10T13:48:14.958Z,59.17
2023-05-10T13:51:07.846Z,62.97
2023-05-10T13:53:59.638Z,68.51
2023-05-10T13:56:51.929Z,68.46
2023-05-10T13:59:46.407Z,70.10
2023-05-10T14:05:50.355Z,73.26
2023-05-10T14:08:43.897Z,76.66
2023-05-10T14:11:37.340Z,77.88
2023-05-10T14:14:30.449Z,78.42
2023-05-10T14:20:54.647Z,79.88
2023-05-10T14:23:47.146Z,80.63
2023-05-10T14:26:39.956Z,80.55
2023-05-10T14:29:32.894Z,80.86
2023-05-10T14:32:28.124Z,81.55
2023-05-10T14:35:21.076Z,80.94
2023-05-10T14:38:15.886Z,81.48
2023-05-10T14:41:06.290Z,82.13
2023-05-10T14:43:59.036Z,82.73
2023-05-10T14:46:52.725Z,83.75
2023-05-10T14:49:44.800Z,84.11
2023-05-10T14:52:37.339Z,84.52
2023-05-10T14:55:31.456Z,83.58
2023-05-10T15:01:57.072Z,82.88
2023-05-10T15:08:19.022Z,83.75
2023-05-10T15:11:50.247Z,83.52
2023-05-10T15:14:44.344Z,82.43
2023-05-10T15:17:37.485Z,80.24
2023-05-10T15:20:29.826Z,79.30
2023-05-10T15:23:22.961Z,79.61
2023-05-10T15:26:16.183Z,77.92
2023-05-10T15:29:35.105Z,76.74
2023-05-10T15:32:30.062Z,78.96
2023-05-10T15:35:23.184Z,78.22
2023-05-10T15:38:16.692Z,76.86
2023-05-10T15:41:09.093Z,74.82
2023-05-10T15:44:01.858Z,77.48
2023-05-10T15:46:53.963Z,75.92
2023-05-10T15:49:48.624Z,75.37
2023-05-10T15:52:41.018Z,74.68
2023-05-10T15:55:35.197Z,74.54
2023-05-10T15:58:27.708Z,77.19
2023-05-10T16:01:20.097Z,78.30
2023-05-10T16:04:12.851Z,80.48
2023-05-10T16:07:06.234Z,81.67
2023-05-10T16:09:58.807Z,83.47
2023-05-10T16:12:50.979Z,83.61
2023-05-10T16:15:48.090Z,84.81
2023-05-10T16:18:40.989Z,85.91
2023-05-10T16:21:34.462Z,85.14
2023-05-10T16:24:28.127Z,86.68
2023-05-10T16:30:33.351Z,88.17
2023-05-10T16:36:38.339Z,91.45
2023-05-10T16:42:44.677Z,91.80
2023-05-10T16:45:36.915Z,91.15
2023-05-10T16:48:30.317Z,91.74
2023-05-10T16:51:23.060Z,91.66
2023-05-10T16:54:17.161Z,91.67
2023-05-10T16:57:10.305Z,93.46
2023-05-10T17:00:04.785Z,94.51
2023-05-10T17:02:57.169Z,94.76
2023-05-10T17:06:01.576Z,94.21
2023-05-10T17:08:48.126Z,93.89
2023-05-10T17:11:42.012Z,94.85
2023-05-10T17:14:35.182Z,94.16
2023-05-10T17:17:29.264Z,93.55
2023-05-10T17:23:34.343Z,93.92
2023-05-10T17:26:27.500Z,94.02
2023-05-10T17:32:42.213Z,93.09
2023-05-10T17:38:56.168Z,93.75
2023-05-10T17:41:49.168Z,94.89
2023-05-10T17:44:50.710Z,95.03
2023-05-10T17:47:44.630Z,94.51
2023-05-10T17:50:37.230Z,94.57
2023-05-10T17:53:29.831Z,93.68
2023-05-10T17:59:28.859Z,93.51
2023-05-10T18:02:20.880Z,92.75
2023-05-10T18:05:27.054Z,93.22
2023-05-10T18:08:22.797Z,93.12
2023-05-10T18:14:40.926Z,91.53
2023-05-10T18:17:34.834Z,91.52
2023-05-10T18:20:29.639Z,91.85
2023-05-10T18:26:34.343Z,92.13
2023-05-10T18:29:27.178Z,92.54
2023-05-10T18:32:19.891Z,92.77
2023-05-10T18:35:12.629Z,92.61
2023-05-10T18:38:06.444Z,92.14
2023-05-10T18:40:58.802Z,91.90
2023-05-10T18:43:50.918Z,91.48
2023-05-10T18:46:43.856Z,92.43
2023-05-10T18:49:36.278Z,92.14
2023-05-10T18:55:35.210Z,92.87
2023-05-10T19:01:44.446Z,92.35
2023-05-10T19:04:37.284Z,92.65
2023-05-10T19:07:30.098Z,92.28
2023-05-10T19:10:23.379Z,91.44
2023-05-10T19:13:14.788Z,90.97
2023-05-10T19:16:13.008Z,91.46
2023-05-10T19:19:06.175Z,91.41
2023-05-10T19:25:12.938Z,90.83
2023-05-10T19:28:06.143Z,91.18
2023-05-10T19:34:10.726Z,91.15
2023-05-10T19:37:03.352Z,91.70
2023-05-10T19:39:56.149Z,91.92
2023-05-10T19:42:49.424Z,91.52
2023-05-10T19:49:03.144Z,91.58
2023-05-10T19:55:28.389Z,91.64
2023-05-10T20:02:07.344Z,92.05
2023-05-10T20:08:12.367Z,92.80
2023-05-10T20:11:06.755Z,92.19
2023-05-10T20:13:59.255Z,92.01
2023-05-10T20:16:52.132Z,91.95
2023-05-10T20:22:58.353Z,91.75
2023-05-10T20:29:09.276Z,92.01
2023-05-10T20:35:18.619Z,92.08
2023-05-10T20:38:11.383Z,92.19
2023-05-10T20:41:04.304Z,92.07
2023-05-10T20:47:14.996Z,92.13
2023-05-10T20:50:09.073Z,91.91
2023-05-10T20:56:14.350Z,92.37
2023-05-10T20:59:07.051Z,92.30
2023-05-10T21:05:22.990Z,91.93
2023-05-10T21:08:15.980Z,91.85
2023-05-10T21:11:08.829Z,91.79
2023-05-10T21:14:01.048Z,91.98
2023-05-10T21:16:54.380Z,92.89
2023-05-10T21:19:47.216Z,93.12
2023-05-10T21:22:41.326Z,92.55
2023-05-10T21:25:33.962Z,92.42
2023-05-10T21:28:44.441Z,92.26
2023-05-10T21:31:34.387Z,93.15
2023-05-10T21:34:27.222Z,93.77
2023-05-10T21:37:20.190Z,94.68
2023-05-10T21:40:15.279Z,93.59
2023-05-10T21:43:08.185Z,92.96
2023-05-10T21:46:00.916Z,92.95
2023-05-10T21:48:54.104Z,92.49
2023-05-10T21:51:47.221Z,92.57
2023-05-10T21:54:40.083Z,92.45
2023-05-10T21:57:34.314Z,92.27
2023-05-10T22:00:26.852Z,92.09
2023-05-10T22:03:19.085Z,92.11
2023-05-10T22:06:12.130Z,92.62
2023-05-10T22:09:05.211Z,92.40
2023-05-10T22:11:58.244Z,92.22
2023-05-10T22:15:02.863Z,92.24
2023-05-10T22:18:02.045Z,92.08
2023-05-10T22:21:20.162Z,92.20
2023-05-10T22:24:13.375Z,92.21
2023-05-10T22:27:06.697Z,91.80
2023-05-10T22:33:12.719Z,92.11
2023-05-10T22:36:05.974Z,92.27
2023-05-10T22:38:59.091Z,92.44
2023-05-10T22:45:04.592Z,91.89
2023-05-10T22:51:14.774Z,92.33
2023-05-10T22:54:07.016Z,93.22
2023-05-10T22:57:00.139Z,93.09
2023-05-10T22:59:53.328Z,93.03
2023-05-10T23:02:46.230Z,92.99
2023-05-10T23:05:39.041Z,92.67
2023-05-10T23:08:33.263Z,92.90
2023-05-10T23:14:38.421Z,92.32
2023-05-10T23:17:30.900Z,92.36
2023-05-10T23:20:22.953Z,91.83
2023-05-10T23:23:16.558Z,91.91
2023-05-10T23:26:35.611Z,92.11
2023-05-10T23:29:28.230Z,92.14
2023-05-10T23:32:20.996Z,92.35
2023-05-10T23:35:14.050Z,92.25
2023-05-10T23:38:00.021Z,92.18
2023-05-10T23:40:48.922Z,91.96
2023-05-10T23:46:44.742Z,92.00
2023-05-10T23:49:30.760Z,92.07
2023-05-10T23:55:29.419Z,91.63
2023-05-10T23:58:15.572Z,91.88
